McLouth, Kansas
Current Conditions -  °F | °C
As of 8:52 PM on Sunday 23 Nov 2014 (Local Time) from KLWC Reporting Station
Overcast Overcast  
Wind Chill: 31°   Ceiling: 7000
Heat Index: 40°   Visibility: 10mi
Dew Point: 37°   Wind: 17mph
Humidity: 89%   Direction: 320°NW
Pressure: 29.51"   Gusts: NA
Location:  39.2°N, 95.21°W
Report Text: KLWC 240252Z AUTO 32015KT 10SM OVC070 04/03 A2951 RMK AO2 PK WND 33030/0155 RAE17 SLP995 P0000 60007 T00440028 51025
Loading
Personal Weather Stations






























Interactive Weather Map New forecast layout! Learn more

10-Day Weather Forecast

Advertisements
Track Severe Weather on mobile